Archiv-/Tagesdaten

--Timestamp---	Temp	Chill	HIndex	Humid	Dewpt	Wind	HiWind	WindDir	Rain	Barom	        Solar	ET	UV
--------------	----	-----	------	-----	-----	----	------	-------	----	-----	        -----	--	--
20080610 00:05	14.8	14.8	14.8	86	12.5	0	2	112	0.00	1019.848	0	0.000	0
20080610 00:10	14.7	14.7	14.7	86	12.4	0	2	112	0.00	1019.780	0	0.000	0
20080610 00:15	14.7	14.7	14.7	87	12.6	0	0	112	0.00	1019.678	0	0.000	0
20080610 00:20	14.7	14.7	14.7	87	12.5	0	0	112	0.00	1019.645	0	0.000	0
20080610 00:25	14.7	14.7	14.7	87	12.6	0	0	112	0.00	1019.577	0	0.000	0
20080610 00:30	14.8	14.8	14.8	88	12.8	0	2	112	0.00	1019.712	0	0.000	0
20080610 00:35	14.9	14.9	14.9	87	12.7	0	0	112	0.00	1019.678	0	0.000	0
20080610 00:40	14.9	14.9	14.9	87	12.7	0	0	112	0.00	1019.645	0	0.000	0
20080610 00:45	14.8	14.8	14.8	87	12.7	0	0	112	0.00	1019.577	0	0.000	0
20080610 00:50	14.8	14.8	14.8	87	12.6	0	0	112	0.00	1019.611	0	0.000	0
20080610 00:55	14.7	14.7	14.7	87	12.5	0	2	112	0.00	1019.611	0	0.000	0
20080610 01:00	14.6	14.6	14.6	87	12.4	0	2	112	0.00	1019.577	0	0.000	0
20080610 01:05	14.5	14.5	14.5	87	12.4	0	0	112	0.00	1019.611	0	0.000	0
20080610 01:10	14.4	14.4	14.4	88	12.5	0	0	112	0.00	1019.543	0	0.000	0
20080610 01:15	14.4	14.4	14.4	88	12.5	0	0	112	0.00	1019.509	0	0.000	0
20080610 01:20	14.4	14.4	14.4	88	12.4	0	0	112	0.00	1019.441	0	0.000	0
20080610 01:25	14.4	14.4	14.4	88	12.5	0	0	112	0.00	1019.509	0	0.000	0
20080610 01:30	14.4	14.4	14.4	88	12.5	0	0	112	0.00	1019.509	0	0.000	0
20080610 01:35	14.4	14.4	14.4	88	12.4	0	0	112	0.00	1019.441	0	0.000	0
20080610 01:40	14.4	14.4	14.4	88	12.4	0	0	112	0.00	1019.475	0	0.000	0
20080610 01:45	14.4	14.4	14.4	89	12.6	0	0	112	0.00	1019.475	0	0.000	0
20080610 01:50	14.3	14.3	14.3	88	12.4	0	0	112	0.00	1019.509	0	0.000	0
20080610 01:55	14.3	14.3	14.3	89	12.5	0	0	112	0.00	1019.475	0	0.000	0
20080610 02:00	14.3	14.3	14.3	89	12.5	0	0	112	0.00	1019.509	0	0.000	0
20080610 02:05	14.2	14.2	14.2	89	12.4	0	0	112	0.00	1019.407	0	0.000	0
20080610 02:10	14.2	14.2	14.2	89	12.4	0	0	112	0.00	1019.407	0	0.000	0
20080610 02:15	14.1	14.1	14.1	89	12.3	0	0	112	0.00	1019.407	0	0.000	0
20080610 02:20	14.1	14.1	14.1	89	12.3	0	0	112	0.00	1019.407	0	0.000	0
20080610 02:25	14.0	14.0	14.0	89	12.2	0	0	112	0.00	1019.340	0	0.000	0
20080610 02:30	14.0	14.0	14.0	89	12.2	0	0	112	0.00	1019.306	0	0.000	0
20080610 02:35	14.1	14.1	14.1	90	12.4	0	2	112	0.00	1019.272	0	0.000	0
20080610 02:40	14.1	14.1	14.1	90	12.4	0	0	112	0.00	1019.340	0	0.000	0
20080610 02:45	14.1	14.1	14.1	90	12.4	0	0	112	0.00	1019.340	0	0.000	0
20080610 02:50	14.1	14.1	14.1	89	12.3	0	0	112	0.00	1019.407	0	0.000	0
20080610 02:55	13.9	13.9	13.9	90	12.3	0	0	112	0.00	1019.374	0	0.000	0
20080610 03:00	13.9	13.9	13.9	90	12.3	0	0	112	0.00	1019.238	0	0.000	0
20080610 03:05	13.8	13.8	13.8	90	12.2	0	0	112	0.00	1019.137	0	0.000	0
20080610 03:10	13.8	13.8	13.8	90	12.2	0	0	112	0.00	1019.103	0	0.000	0
20080610 03:15	13.7	13.7	13.7	90	12.1	0	0	112	0.00	1019.137	0	0.000	0
20080610 03:20	13.7	13.7	13.7	90	12.1	0	0	112	0.00	1019.137	0	0.000	0
20080610 03:25	13.7	13.7	13.7	90	12.1	0	0	112	0.00	1019.069	0	0.000	0
20080610 03:30	13.6	13.6	13.6	90	12.0	0	0	112	0.00	1019.035	0	0.000	0
20080610 03:35	13.6	13.6	13.6	91	12.1	0	0	112	0.00	1019.035	0	0.000	0
20080610 03:40	13.6	13.6	13.6	91	12.1	0	2	112	0.00	1019.137	0	0.000	0
20080610 03:45	13.6	13.6	13.6	91	12.1	0	3	112	0.00	1019.137	0	0.000	0
20080610 03:50	13.4	13.4	13.4	91	12.0	0	3	112	0.00	1019.035	0	0.000	0
20080610 03:55	13.4	13.4	13.4	91	12.0	0	2	112	0.00	1019.137	0	0.000	0
20080610 04:00	13.4	13.4	13.4	91	11.9	0	2	112	0.00	1019.103	0	0.000	0
20080610 04:05	13.3	13.3	13.3	91	11.9	0	2	112	0.00	1018.899	0	0.000	0
20080610 04:10	13.3	13.3	13.3	91	11.8	0	0	112	0.00	1018.764	0	0.000	0
20080610 04:15	13.2	13.2	13.2	91	11.8	0	0	112	0.00	1018.798	0	0.000	0
20080610 04:20	13.2	13.2	13.2	90	11.6	0	2	112	0.00	1018.764	0	0.000	0
20080610 04:25	13.1	13.1	13.1	91	11.7	0	2	112	0.00	1018.730	0	0.000	0
20080610 04:30	13.1	13.1	13.1	91	11.6	0	5	112	0.00	1018.730	0	0.000	0
20080610 04:35	13.1	13.1	13.1	91	11.6	0	2	112	0.00	1018.662	0	0.000	0
20080610 04:40	13.0	13.0	13.0	91	11.6	0	0	112	0.00	1018.866	0	0.000	0
20080610 04:45	12.9	12.9	12.9	91	11.5	0	3	112	0.00	1018.967	0	0.000	0
20080610 04:50	12.9	12.9	12.9	91	11.5	2	6	112	0.00	1018.933	0	0.000	0
20080610 04:55	12.8	12.8	12.8	91	11.4	0	2	112	0.00	1018.899	0	0.000	0
20080610 05:00	12.8	12.8	12.8	90	11.2	0	0	112	0.00	1018.899	0	0.000	0
20080610 05:05	12.8	12.8	12.8	90	11.2	0	0	112	0.00	1018.967	0	0.000	0
20080610 05:10	12.7	12.7	12.7	90	11.1	0	0	112	0.00	1019.001	0	0.000	0
20080610 05:15	12.6	12.6	12.6	90	11.0	0	0	112	0.00	1019.001	0	0.000	0
20080610 05:20	12.5	12.5	12.5	90	10.9	0	0	112	0.00	1018.967	0	0.000	0
20080610 05:25	12.3	12.3	12.3	90	10.7	0	0	112	0.00	1018.967	5	0.000	0
20080610 05:30	12.2	12.2	12.2	91	10.8	0	0	112	0.00	1018.967	8	0.000	0
20080610 05:35	12.2	12.2	12.2	91	10.7	0	2	112	0.00	1019.035	11	0.000	0
20080610 05:40	12.1	12.1	12.1	91	10.7	0	0	112	0.00	1019.001	12	0.000	0
20080610 05:45	12.1	12.1	12.1	91	10.7	0	0	112	0.00	1019.001	14	0.000	0
20080610 05:50	12.1	12.1	12.1	91	10.6	0	0	112	0.00	1019.035	15	0.000	0
20080610 05:55	12.1	12.1	12.1	92	10.8	0	0	112	0.00	1019.069	19	0.000	0
20080610 06:00	12.2	12.2	12.2	92	10.9	0	0	112	0.00	1019.035	26	0.000	0
20080610 06:05	12.3	12.3	12.3	92	11.0	0	0	112	0.00	1019.103	27	0.000	0
20080610 06:10	12.4	12.4	12.4	92	11.2	0	0	112	0.00	1019.170	28	0.000	0
20080610 06:15	12.5	12.5	12.5	92	11.2	0	0	112	0.00	1019.204	31	0.000	0
20080610 06:20	12.6	12.6	12.6	92	11.3	0	0	112	0.00	1019.204	33	0.000	0
20080610 06:25	12.7	12.7	12.7	92	11.4	0	0	112	0.00	1019.170	34	0.000	0
20080610 06:30	12.7	12.7	12.7	92	11.5	0	0	112	0.00	1019.069	28	0.000	0
20080610 06:35	12.8	12.8	12.8	92	11.5	0	0	112	0.00	1019.069	37	0.000	0
20080610 06:40	12.8	12.8	12.8	92	11.6	0	0	112	0.00	1019.035	62	0.000	0
20080610 06:45	13.1	13.1	13.1	92	11.8	0	2	112	0.00	1019.001	69	0.000	0
20080610 06:50	13.2	13.2	13.2	92	11.9	0	3	112	0.00	1018.967	54	0.000	0
20080610 06:55	13.4	13.4	13.4	92	12.1	0	2	112	0.00	1018.967	108	0.000	0
20080610 07:00	13.7	13.7	13.7	91	12.3	0	2	112	0.00	1018.967	154	0.020	0
20080610 07:05	13.9	13.9	13.9	90	12.3	0	2	112	0.00	1019.137	153	0.000	0
20080610 07:10	14.1	14.1	14.1	89	12.3	0	5	112	0.00	1019.137	169	0.000	0
20080610 07:15	14.2	14.2	14.2	89	12.4	0	2	157	0.00	1019.035	185	0.000	0
20080610 07:20	14.5	14.5	14.5	89	12.7	0	2	157	0.00	1019.035	201	0.000	0
20080610 07:25	14.8	14.8	14.8	88	12.9	0	2	157	0.00	1019.001	212	0.000	1
20080610 07:30	15.0	15.0	15.0	87	12.9	0	5	157	0.00	1019.069	222	0.000	1
20080610 07:35	15.2	15.2	15.2	86	12.9	0	3	157	0.00	1019.035	236	0.000	1
20080610 07:40	15.4	15.4	15.4	86	13.1	0	3	157	0.00	1018.933	249	0.000	1
20080610 07:45	15.6	15.6	15.6	86	13.2	0	3	157	0.00	1018.933	261	0.000	1
20080610 07:50	15.9	15.9	15.9	84	13.2	0	3	157	0.00	1018.899	278	0.000	1
20080610 07:55	16.3	16.3	16.3	83	13.4	0	3	157	0.00	1018.832	292	0.000	1
20080610 08:00	16.5	16.5	16.5	82	13.4	0	2	157	0.00	1018.629	277	0.100	1
20080610 08:05	16.6	16.6	16.6	82	13.5	0	2	157	0.00	1019.035	323	0.000	1
20080610 08:10	17.0	17.0	17.0	82	13.9	0	2	157	0.00	1018.866	338	0.000	1
20080610 08:15	17.4	17.4	17.4	81	14.1	0	5	157	0.00	1018.899	342	0.000	1
20080610 08:20	17.7	17.7	17.7	79	14.0	0	3	157	0.00	1018.899	329	0.000	1
20080610 08:25	17.9	17.9	17.9	77	13.8	0	2	157	0.00	1018.967	343	0.000	1
20080610 08:30	17.8	17.8	17.8	78	13.9	0	2	157	0.00	1019.001	373	0.000	2
20080610 08:35	18.1	18.1	18.1	79	14.4	0	2	157	0.00	1018.832	398	0.000	2
20080610 08:40	18.5	18.5	18.5	76	14.2	0	2	157	0.00	1018.832	420	0.000	2
20080610 08:45	18.6	18.6	18.6	77	14.5	2	5	157	0.00	1018.764	433	0.000	2
20080610 08:50	18.8	18.8	18.8	77	14.7	0	2	157	0.00	1018.764	406	0.000	2
20080610 08:55	18.8	18.8	18.8	75	14.3	0	2	157	0.00	1018.764	416	0.000	2
20080610 09:00	18.8	18.8	18.8	74	14.1	0	3	157	0.00	1018.730	431	0.160	2
20080610 09:05	19.1	19.1	19.1	75	14.5	0	3	157	0.00	1018.832	377	0.000	2
20080610 09:10	19.3	19.3	19.3	74	14.5	0	5	157	0.00	1018.730	352	0.000	2
20080610 09:15	19.2	19.2	19.2	75	14.7	0	2	157	0.00	1018.798	442	0.000	2
20080610 09:20	19.4	19.4	19.4	74	14.6	2	6	157	0.00	1018.730	455	0.000	3
20080610 09:25	19.4	19.4	19.4	73	14.4	2	6	157	0.00	1018.662	487	0.000	3
20080610 09:30	19.6	19.6	19.6	74	14.8	0	3	157	0.00	1018.730	528	0.000	3
20080610 09:35	19.7	19.7	19.7	73	14.7	0	3	157	0.00	1018.696	542	0.000	3
20080610 09:40	19.9	19.9	19.9	72	14.7	2	6	22	0.00	1018.696	559	0.000	3
20080610 09:45	20.1	20.1	20.1	71	14.7	2	5	22	0.00	1018.696	562	0.000	3
20080610 09:50	20.2	20.2	20.2	72	15.0	2	6	22	0.00	1018.662	573	0.000	4
20080610 09:55	20.3	20.3	20.3	71	14.9	2	6	45	0.00	1018.493	588	0.000	4
20080610 10:00	20.6	20.6	20.6	70	14.9	2	6	67	0.00	1018.493	598	0.240	4
20080610 10:05	20.5	20.5	20.5	72	15.3	5	10	22	0.00	1018.595	601	0.000	4
20080610 10:10	20.6	20.6	20.6	71	15.1	3	10	67	0.00	1018.629	621	0.000	4
20080610 10:15	20.6	20.6	20.6	69	14.7	5	8	45	0.00	1018.595	623	0.000	4
20080610 10:20	20.8	20.8	20.8	70	15.1	2	8	45	0.00	1018.595	646	0.000	4
20080610 10:25	20.8	20.8	20.8	69	14.9	5	11	0	0.00	1018.459	658	0.000	4
20080610 10:30	20.9	20.9	20.9	68	14.8	5	11	45	0.00	1018.425	668	0.000	5
20080610 10:35	21.1	21.1	21.1	68	14.9	5	10	45	0.00	1018.425	581	0.000	4
20080610 10:40	20.9	20.9	20.9	67	14.6	3	10	67	0.00	1018.392	680	0.000	5
20080610 10:45	21.2	21.2	21.2	68	15.0	2	6	67	0.00	1018.392	725	0.000	5
20080610 10:50	21.3	21.3	21.3	66	14.7	3	8	112	0.00	1018.392	732	0.000	5
20080610 10:55	21.5	21.5	21.5	66	14.9	3	6	112	0.00	1018.392	667	0.000	4
20080610 11:00	21.2	21.2	21.2	67	14.8	3	6	67	0.00	1018.392	231	0.300	4
20080610 11:05	21.4	21.4	21.4	64	14.3	5	11	67	0.00	1018.595	793	0.000	6
20080610 11:10	21.7	21.7	21.7	65	14.8	3	6	157	0.00	1018.561	746	0.000	6
20080610 11:15	21.8	21.8	21.8	65	14.9	3	8	45	0.00	1018.493	746	0.000	6
20080610 11:20	21.9	21.9	21.9	64	14.8	5	10	135	0.00	1018.527	774	0.000	6
20080610 11:25	21.8	21.8	21.8	64	14.7	5	10	67	0.00	1018.527	775	0.000	6
20080610 11:30	21.8	21.8	21.8	62	14.2	5	10	67	0.00	1018.527	787	0.000	6
20080610 11:35	21.9	21.9	21.9	62	14.3	3	6	67	0.00	1018.527	808	0.000	6
20080610 11:40	22.1	22.1	22.1	62	14.5	5	11	135	0.00	1018.425	815	0.000	7
20080610 11:45	22.2	22.2	22.2	60	14.0	2	6	67	0.00	1018.392	802	0.000	7
20080610 11:50	22.3	22.3	22.3	61	14.4	3	10	90	0.00	1018.425	822	0.000	6
20080610 11:55	22.2	22.2	22.2	60	14.1	3	6	67	0.00	1018.358	836	0.000	7
20080610 12:00	22.3	22.3	22.3	59	13.9	3	8	90	0.00	1018.324	822	0.380	7
20080610 12:05	22.4	22.4	22.4	59	14.0	3	8	45	0.00	1018.324	815	0.000	7
20080610 12:10	22.5	22.5	22.5	61	14.6	5	8	45	0.00	1018.324	819	0.000	7
20080610 12:15	22.7	22.7	22.7	61	14.8	3	8	45	0.00	1018.425	829	0.000	7
20080610 12:20	22.8	22.8	22.8	58	14.1	2	6	67	0.00	1018.459	818	0.000	7
20080610 12:25	22.8	22.8	22.8	57	13.9	3	8	67	0.00	1018.358	848	0.000	8
20080610 12:30	22.8	22.8	22.8	60	14.7	2	8	45	0.00	1018.324	860	0.000	7
20080610 12:35	23.3	23.3	23.3	57	14.3	2	6	0	0.00	1018.188	840	0.000	8
20080610 12:40	23.2	23.2	23.2	59	14.8	3	8	22	0.00	1018.154	842	0.000	8
20080610 12:45	23.2	23.2	23.2	55	13.7	5	6	45	0.00	1018.121	839	0.000	8
20080610 12:50	23.2	23.2	23.2	58	14.5	2	6	22	0.00	1018.087	826	0.000	8
20080610 12:55	23.2	23.2	23.2	57	14.2	2	6	22	0.00	1018.053	834	0.000	8
20080610 13:00	23.3	23.3	23.3	56	14.1	2	5	22	0.00	1017.985	849	0.400	8
20080610 13:05	23.4	23.4	23.4	55	13.8	5	8	22	0.00	1017.951	851	0.000	8
20080610 13:10	23.6	23.6	23.6	55	14.0	2	6	22	0.00	1017.951	839	0.000	8
20080610 13:15	23.7	23.7	23.7	54	13.8	3	8	0	0.00	1017.850	850	0.000	8
20080610 13:20	23.9	23.9	25.3	56	14.6	2	5	0	0.00	1017.714	842	0.000	8
20080610 13:25	24.1	24.1	25.4	54	14.2	3	11	270	0.00	1017.714	830	0.000	8
20080610 13:30	24.3	24.3	25.5	54	14.4	2	6	22	0.00	1017.545	830	0.000	8
20080610 13:35	24.1	24.1	25.4	52	13.6	2	8	22	0.00	1017.545	122	0.000	4
20080610 13:40	23.6	23.6	23.6	57	14.6	2	5	67	0.00	1017.613	566	0.000	7
20080610 13:45	23.8	23.8	23.8	57	14.7	2	6	22	0.00	1017.647	846	0.000	7
20080610 13:50	24.0	24.0	25.4	54	14.1	2	5	67	0.00	1017.579	835	0.000	8
20080610 13:55	24.3	24.3	25.5	56	14.9	2	11	292	0.00	1017.409	827	0.000	8
20080610 14:00	24.3	24.3	25.5	55	14.6	3	11	292	0.00	1017.342	832	0.380	8
20080610 14:05	24.5	24.5	25.6	55	14.9	2	6	292	0.00	1017.376	832	0.000	8
20080610 14:10	24.4	24.4	25.6	51	13.6	3	8	270	0.00	1017.308	811	0.000	7
20080610 14:15	24.2	24.2	25.4	54	14.3	5	11	22	0.00	1017.240	801	0.000	7
20080610 14:20	24.1	24.1	25.4	53	13.9	2	5	0	0.00	1017.206	807	0.000	7
20080610 14:25	24.2	24.2	25.4	56	14.8	3	10	22	0.00	1017.037	802	0.000	7
20080610 14:30	24.2	24.2	25.5	51	13.4	3	8	22	0.00	1017.037	797	0.000	7
20080610 14:35	24.3	24.3	25.5	50	13.2	3	11	22	0.00	1016.901	795	0.000	7
20080610 14:40	24.6	24.6	25.6	49	13.1	2	6	292	0.00	1016.868	793	0.000	7
20080610 14:45	24.7	24.7	25.7	47	12.6	3	8	22	0.00	1016.664	788	0.000	7
20080610 14:50	24.6	24.6	25.6	48	12.8	3	10	22	0.00	1016.698	782	0.000	7
20080610 14:55	24.4	24.4	25.6	49	13.0	3	6	22	0.00	1016.698	783	0.000	7
20080610 15:00	24.7	24.7	25.7	50	13.5	2	5	45	0.00	1016.631	787	0.400	6
20080610 15:05	25.1	25.1	25.9	48	13.3	0	5	292	0.00	1016.631	797	0.000	6
20080610 15:10	25.4	25.4	26.1	50	14.2	2	6	292	0.00	1016.495	797	0.000	6
20080610 15:15	25.5	25.5	26.1	47	13.3	2	10	292	0.00	1016.360	775	0.000	6
20080610 15:20	25.6	25.6	26.3	50	14.4	2	6	0	0.00	1016.326	782	0.000	6
20080610 15:25	25.7	25.7	26.2	47	13.5	2	8	45	0.00	1016.326	758	0.000	6
20080610 15:30	25.3	25.3	26.0	47	13.1	5	10	45	0.00	1016.224	734	0.000	6
20080610 15:35	25.2	25.2	26.0	47	13.1	2	3	45	0.00	1016.326	719	0.000	6
20080610 15:40	25.3	25.3	25.9	45	12.5	5	11	22	0.00	1016.224	712	0.000	5
20080610 15:45	25.1	25.1	25.9	49	13.6	2	6	45	0.00	1016.258	705	0.000	5
20080610 15:50	25.4	25.4	26.0	46	12.9	2	8	292	0.00	1016.123	724	0.000	5
20080610 15:55	25.7	25.7	26.2	47	13.5	2	6	292	0.00	1016.089	734	0.000	5
20080610 16:00	25.9	25.9	26.4	46	13.4	2	8	22	0.00	1015.987	713	0.380	5
20080610 16:05	25.9	25.9	26.3	45	13.1	2	6	315	0.00	1015.987	681	0.000	5
20080610 16:10	25.9	25.9	26.4	48	14.0	2	8	315	0.00	1016.055	666	0.000	4
20080610 16:15	25.9	25.9	26.3	45	13.1	3	6	315	0.00	1015.953	653	0.000	4
20080610 16:20	26.1	26.1	26.5	46	13.6	2	6	22	0.00	1015.953	631	0.000	4
20080610 16:25	26.3	26.3	26.5	43	12.7	2	6	0	0.00	1015.919	622	0.000	4
20080610 16:30	26.4	26.4	26.7	45	13.5	2	8	22	0.00	1015.784	616	0.000	4
20080610 16:35	26.4	26.4	26.6	43	12.8	2	8	22	0.00	1015.716	606	0.000	4
20080610 16:40	26.3	26.3	26.6	44	13.1	3	6	22	0.00	1015.581	592	0.000	4
20080610 16:45	26.5	26.5	26.8	46	13.9	2	6	22	0.00	1015.615	581	0.000	4
20080610 16:50	26.8	26.8	26.9	43	13.2	2	6	22	0.00	1015.581	568	0.000	3
20080610 16:55	26.9	26.9	26.9	41	12.6	2	6	22	0.00	1015.378	561	0.000	3
20080610 17:00	26.8	26.8	26.9	44	13.5	2	5	0	0.00	1015.445	548	0.320	3
20080610 17:05	26.8	26.8	27.1	47	14.6	2	5	292	0.00	1015.378	551	0.000	3
20080610 17:10	26.4	26.4	26.7	46	13.9	2	5	292	0.00	1015.276	245	0.000	2
20080610 17:15	25.9	25.9	26.5	49	14.4	0	5	270	0.00	1015.310	186	0.000	2
20080610 17:20	25.6	25.6	26.2	49	14.0	0	3	0	0.00	1015.344	242	0.000	2
20080610 17:25	25.2	25.2	25.9	47	13.0	5	10	22	0.00	1015.445	248	0.000	2
20080610 17:30	25.1	25.1	25.8	46	12.6	3	6	45	0.00	1015.344	546	0.000	2
20080610 17:35	25.1	25.1	25.9	46	12.7	3	6	67	0.00	1015.310	531	0.000	2
20080610 17:40	25.1	25.1	25.9	46	12.7	3	6	67	0.00	1015.344	427	0.000	2
20080610 17:45	25.1	25.1	25.9	47	12.9	3	8	45	0.00	1015.276	355	0.000	2
20080610 17:50	24.8	24.8	25.7	45	12.1	3	6	45	0.00	1015.310	277	0.000	1
20080610 17:55	24.5	24.5	25.6	47	12.4	2	5	67	0.00	1015.310	215	0.000	1
20080610 18:00	24.2	24.2	25.5	47	12.2	3	6	45	0.00	1015.174	183	0.180	1
20080610 18:05	24.2	24.2	25.4	46	11.8	3	5	45	0.00	1015.039	144	0.000	1
20080610 18:10	24.1	24.1	25.4	48	12.4	0	3	67	0.00	1015.073	117	0.000	1
20080610 18:15	24.0	24.0	25.4	49	12.6	0	5	67	0.00	1015.174	97	0.000	0
20080610 18:20	23.8	23.8	23.8	49	12.4	0	3	67	0.00	1015.208	84	0.000	0
20080610 18:25	23.6	23.6	23.6	51	12.9	0	3	67	0.00	1015.242	75	0.000	0
20080610 18:30	23.6	23.6	23.6	51	12.8	0	2	67	0.00	1015.310	68	0.000	0
20080610 18:35	23.4	23.4	23.4	51	12.7	0	2	67	0.00	1015.242	63	0.000	0
20080610 18:40	23.4	23.4	23.4	51	12.7	0	0	67	0.00	1015.242	60	0.000	0
20080610 18:45	23.4	23.4	23.4	52	13.0	0	2	67	0.00	1015.344	58	0.000	0
20080610 18:50	23.4	23.4	23.4	51	12.7	0	2	67	0.00	1015.344	59	0.000	0
20080610 18:55	23.4	23.4	23.4	51	12.7	0	2	67	0.00	1015.378	61	0.000	0
20080610 19:00	23.4	23.4	23.4	52	13.0	0	0	67	0.00	1015.411	62	0.040	0
20080610 19:05	23.3	23.3	23.3	52	12.9	0	2	180	0.00	1015.005	65	0.000	0
20080610 19:10	23.2	23.2	23.2	51	12.5	0	5	180	0.00	1015.039	78	0.000	0
20080610 19:15	23.2	23.2	23.2	52	12.8	0	0	180	0.00	1015.073	94	0.000	0
20080610 19:20	23.2	23.2	23.2	53	13.1	0	2	180	0.00	1015.073	112	0.000	0
20080610 19:25	23.2	23.2	23.2	54	13.4	2	8	180	0.00	1015.005	97	0.000	0
20080610 19:30	23.2	23.2	23.2	54	13.4	2	5	225	0.00	1015.039	108	0.000	0
20080610 19:35	23.2	23.2	23.2	55	13.7	3	10	202	0.00	1015.039	126	0.000	0
20080610 19:40	23.1	23.1	23.1	57	14.1	6	16	225	0.00	1014.937	136	0.000	0
20080610 19:45	22.7	22.7	22.7	60	14.5	5	16	225	0.00	1015.005	131	0.000	0
20080610 19:50	22.3	22.3	22.3	62	14.6	6	16	225	0.00	1014.937	117	0.000	0
20080610 19:55	22.1	22.1	22.1	64	14.9	3	10	225	0.00	1014.836	110	0.000	0
20080610 20:00	22.0	22.0	22.0	65	15.1	3	14	202	0.00	1014.802	97	0.080	0
20080610 20:05	21.9	21.9	21.9	65	15.0	5	11	202	0.00	1014.700	84	0.000	0
20080610 20:10	21.8	21.8	21.8	65	14.9	3	16	202	0.00	1014.700	72	0.000	0
20080610 20:15	21.6	21.6	21.6	67	15.2	5	11	202	0.00	1014.666	64	0.000	0
20080610 20:20	21.3	21.3	21.3	67	14.9	3	10	202	0.00	1014.768	54	0.000	0
20080610 20:25	21.2	21.2	21.2	65	14.4	6	14	202	0.00	1014.802	47	0.000	0
20080610 20:30	21.1	21.1	21.1	64	14.0	3	11	225	0.00	1014.734	40	0.000	0
20080610 20:35	20.9	20.9	20.9	65	14.1	5	16	202	0.00	1014.768	33	0.000	0
20080610 20:40	20.7	20.7	20.7	64	13.6	5	14	225	0.00	1015.039	26	0.000	0
20080610 20:45	20.4	20.4	20.4	64	13.4	5	13	225	0.00	1015.174	20	0.000	0
20080610 20:50	20.2	20.2	20.2	66	13.7	6	16	202	0.00	1015.208	16	0.000	0
20080610 20:55	20.0	20.0	20.0	67	13.7	5	14	225	0.00	1015.208	12	0.000	0
20080610 21:00	19.8	19.8	19.8	68	13.7	3	10	225	0.00	1015.276	8	0.040	0
20080610 21:05	19.7	19.7	19.7	68	13.6	3	10	225	0.00	1015.208	7	0.000	0
20080610 21:10	19.6	19.6	19.6	68	13.5	5	11	225	0.00	1015.310	8	0.000	0
20080610 21:15	19.4	19.4	19.4	70	13.8	3	10	225	0.00	1015.310	5	0.000	0
20080610 21:20	19.2	19.2	19.2	70	13.6	3	10	225	0.00	1015.378	0	0.000	0
20080610 21:25	19.1	19.1	19.1	68	13.0	5	14	225	0.00	1015.615	0	0.000	0
20080610 21:30	18.9	18.9	18.9	66	12.4	5	13	225	0.00	1015.581	0	0.000	0
20080610 21:35	18.8	18.8	18.8	66	12.3	5	14	225	0.00	1015.581	0	0.000	0
20080610 21:40	18.7	18.7	18.7	68	12.7	5	11	225	0.00	1015.581	0	0.000	0
20080610 21:45	18.6	18.6	18.6	69	12.8	5	11	225	0.00	1015.649	0	0.000	0
20080610 21:50	18.4	18.4	18.4	68	12.4	5	14	225	0.00	1015.581	0	0.000	0
20080610 21:55	18.3	18.3	18.3	67	12.1	3	10	225	0.00	1015.581	0	0.000	0
20080610 22:00	18.3	18.3	18.3	67	12.0	5	16	225	0.00	1015.581	0	0.020	0
20080610 22:05	18.3	18.3	18.3	66	11.8	3	8	247	0.00	1015.513	0	0.000	0
20080610 22:10	18.3	18.3	18.3	66	11.8	3	10	225	0.00	1015.547	0	0.000	0
20080610 22:15	18.3	18.3	18.3	66	11.8	2	10	247	0.00	1015.581	0	0.000	0
20080610 22:20	18.2	18.2	18.2	66	11.8	2	6	247	0.00	1015.581	0	0.000	0
20080610 22:25	18.1	18.1	18.1	66	11.7	2	8	225	0.00	1015.581	0	0.000	0
20080610 22:30	18.1	18.1	18.1	67	11.8	2	10	225	0.00	1015.615	0	0.000	0
20080610 22:35	17.9	17.9	17.9	68	11.9	2	6	202	0.00	1015.581	0	0.000	0
20080610 22:40	17.9	17.9	17.9	67	11.7	0	5	202	0.00	1015.479	0	0.000	0
20080610 22:45	17.8	17.8	17.8	68	11.8	0	5	202	0.00	1015.445	0	0.000	0
20080610 22:50	17.8	17.8	17.8	69	12.0	2	6	202	0.00	1015.445	0	0.000	0
20080610 22:55	17.6	17.6	17.6	70	12.1	0	5	202	0.00	1015.479	0	0.000	0
20080610 23:00	17.4	17.4	17.4	70	11.9	0	2	202	0.00	1015.479	0	0.020	0
20080610 23:05	17.3	17.3	17.3	71	12.0	0	5	202	0.00	1015.581	0	0.000	0
20080610 23:10	17.3	17.3	17.3	71	12.0	0	0	202	0.00	1015.682	0	0.000	0
20080610 23:15	17.2	17.2	17.2	72	12.1	0	0	202	0.00	1015.716	0	0.000	0
20080610 23:20	17.1	17.1	17.1	72	12.0	0	0	202	0.00	1015.682	0	0.000	0
20080610 23:25	17.0	17.0	17.0	72	11.9	0	2	202	0.00	1015.649	0	0.000	0
20080610 23:30	16.9	16.9	16.9	73	12.0	2	6	202	0.00	1015.547	0	0.000	0
20080610 23:35	16.8	16.8	16.8	73	11.9	2	6	202	0.00	1015.615	0	0.000	0
20080610 23:40	16.6	16.6	16.6	74	12.0	2	5	202	0.00	1015.716	0	0.000	0
20080610 23:45	16.4	16.4	16.4	74	11.8	3	6	202	0.00	1015.615	0	0.000	0
20080610 23:50	16.3	16.3	16.3	74	11.7	0	5	202	0.00	1015.615	0	0.000	0
20080610 23:55	16.3	16.3	16.3	75	11.8	2	5	202	0.00	1015.716	0	0.000	0
20080610 24:00	16.2	16.2	16.2	75	11.7	0	6	202	0.00	1015.649	0	0.020	0



Please note the license to use and transfer of this data:
http://creativecommons.org/licenses/by-nc-sa/3.0/deed.en

Bitte beachten sie die Lizenz zur Verwertung und Weitergabe der Daten:
http://creativecommons.org/licenses/by-nc-sa/3.0/deed.de

zurück zur Übersicht der Archivdaten (Monats und Tagesdaten)

Cookies helfen bei der Bereitstellung von Inhalten. Durch die Nutzung dieser Seiten erklärst du dich damit einverstanden, dass Cookies auf deinem Rechner gespeichert werden. Weitere Information